Time;durP1;ratioP1;P1;durP2;ratioP2;P2;SDS_P1;SDS_P2;PMS_P1;PMS_P2;Temp;Humidity;BMP_temperature;BMP_pressure;BME280_temperature;BME280_humidity;BME280_pressure;Samples;Min_cycle;Max_cycle;Signal;HPM_P1;HPM_P2
2022/01/19 00:02:01;;;;;;;18.37;9.00;;;7.40;99.90;;;;;;5052093;28;20490;-47
2022/01/19 00:04:27;;;;;;;20.57;9.37;;;7.40;99.90;;;;;;5051958;28;20782;-46
2022/01/19 00:06:54;;;;;;;13.20;7.87;;;7.50;99.90;;;;;;5051863;28;20947;-46
2022/01/19 00:09:20;;;;;;;16.10;7.87;;;7.50;99.90;;;;;;5051318;28;20467;-45
2022/01/19 00:11:48;;;;;;;9.23;6.60;;;7.50;99.90;;;;;;5052247;28;20415;-45
2022/01/19 00:14:15;;;;;;;13.57;7.13;;;7.50;99.90;;;;;;5051853;28;20413;-46
2022/01/19 00:16:41;;;;;;;10.23;7.30;;;7.50;99.90;;;;;;5051794;28;20433;-44
2022/01/19 00:19:08;;;;;;;13.13;6.73;;;7.50;99.90;;;;;;5051360;28;20417;-44
2022/01/19 00:21:34;;;;;;;20.67;7.70;;;7.50;99.90;;;;;;5052024;28;20452;-46
2022/01/19 00:24:01;;;;;;;15.60;7.80;;;7.50;99.90;;;;;;5034002;28;20812;-45
2022/01/19 00:26:28;;;;;;;12.67;7.63;;;7.50;99.90;;;;;;5051973;28;20452;-44
2022/01/19 00:28:57;;;;;;;16.27;7.77;;;7.50;99.90;;;;;;5051162;28;20977;-45
2022/01/19 00:31:24;;;;;;;12.17;7.70;;;7.50;99.90;;;;;;5051718;28;20433;-45
2022/01/19 00:33:50;;;;;;;16.70;9.30;;;7.50;99.90;;;;;;5050960;28;20438;-45
2022/01/19 00:36:17;;;;;;;14.70;8.10;;;7.50;99.90;;;;;;5051328;28;20449;-46
2022/01/19 00:38:45;;;;;;;11.57;7.27;;;7.50;99.90;;;;;;5033208;28;20449;-47
2022/01/19 00:41:12;;;;;;;15.03;7.13;;;7.50;99.90;;;;;;5051580;28;20534;-45
2022/01/19 00:43:38;;;;;;;11.17;6.87;;;7.60;99.90;;;;;;5051285;28;20441;-45
2022/01/19 00:46:06;;;;;;;12.33;6.63;;;7.50;99.90;;;;;;5051114;28;20465;-44
2022/01/19 00:48:33;;;;;;;14.50;7.37;;;7.50;99.90;;;;;;5032889;28;20965;-46
2022/01/19 00:51:00;;;;;;;11.90;7.03;;;7.50;99.90;;;;;;5051451;28;20533;-45
2022/01/19 00:53:27;;;;;;;24.30;7.90;;;7.50;99.90;;;;;;5033552;28;20421;-47
2022/01/19 00:55:56;;;;;;;18.63;8.30;;;7.50;99.90;;;;;;5051108;28;20494;-45
2022/01/19 00:58:23;;;;;;;13.63;7.40;;;7.50;99.90;;;;;;5050843;28;20440;-44
2022/01/19 01:00:49;;;;;;;15.50;8.17;;;7.50;99.90;;;;;;5032330;28;20481;-46
2022/01/19 01:03:17;;;;;;;12.67;7.83;;;7.50;99.90;;;;;;5050981;28;20920;-46
2022/01/19 01:05:44;;;;;;;14.53;6.97;;;7.50;99.90;;;;;;5051165;28;20454;-46
2022/01/19 01:08:11;;;;;;;14.13;6.93;;;7.50;99.90;;;;;;5050860;28;20429;-45
2022/01/19 01:10:42;;;;;;;13.53;7.27;;;7.50;99.90;;;;;;5051015;28;20522;-46
2022/01/19 01:13:21;;;;;;;10.53;7.07;;;7.50;99.90;;;;;;5051105;28;20931;-45
2022/01/19 01:15:59;;;;;;;14.60;7.17;;;7.30;99.90;;;;;;5032955;28;20907;-45
2022/01/19 01:18:29;;;;;;;15.93;7.77;;;7.50;99.90;;;;;;5050333;28;20403;-47
2022/01/19 01:21:00;;;;;;;15.87;7.03;;;7.50;99.90;;;;;;5032856;28;20489;-45
2022/01/19 01:23:29;;;;;;;10.87;6.40;;;7.50;99.90;;;;;;5033238;28;20477;-45
2022/01/19 01:25:56;;;;;;;12.67;7.17;;;7.50;99.90;;;;;;5032781;28;20474;-45
2022/01/19 01:28:25;;;;;;;12.17;7.17;;;7.50;99.90;;;;;;5032646;28;20521;-45
2022/01/19 01:30:52;;;;;;;13.27;7.43;;;7.50;99.90;;;;;;5050771;28;20443;-45
2022/01/19 01:33:19;;;;;;;20.63;7.57;;;7.50;99.90;;;;;;5050628;28;20410;-46
2022/01/19 01:35:48;;;;;;;20.07;9.33;;;7.40;99.90;;;;;;5050611;28;20830;-45
2022/01/19 01:38:15;;;;;;;16.30;7.47;;;7.50;99.90;;;;;;5032288;28;20511;-45
2022/01/19 01:40:42;;;;;;;17.13;7.33;;;7.50;99.90;;;;;;5032626;28;20439;-45
2022/01/19 01:43:10;;;;;;;16.30;9.10;;;7.50;99.90;;;;;;5033031;28;20877;-45
2022/01/19 01:45:41;;;;;;;14.57;8.10;;;7.50;99.90;;;;;;5034373;28;20481;-45
2022/01/19 01:48:11;;;;;;;19.60;8.63;;;7.50;99.90;;;;;;5036255;28;20457;-44
2022/01/19 01:53:38;;;;;;;18.50;9.30;;;7.20;99.90;;;;;;5036488;28;20782;-45
2022/01/19 01:56:08;;;;;;;17.57;10.30;;;7.40;99.90;;;;;;5035862;28;20462;-46
2022/01/19 01:58:38;;;;;;;21.30;10.80;;;7.40;99.90;;;;;;5036030;28;21146;-44
2022/01/19 02:01:40;;;;;;;23.50;10.57;;;7.40;99.90;;;;;;5053786;28;20474;-46
2022/01/19 02:04:14;;;;;;;16.77;10.43;;;7.40;99.90;;;;;;5036192;28;20502;-45
2022/01/19 02:07:01;;;;;;;16.83;10.77;;;7.30;99.90;;;;;;5036104;28;20448;-45
2022/01/19 02:09:35;;;;;;;24.77;12.57;;;7.30;99.90;;;;;;5036094;28;20478;-46
2022/01/19 02:23:10;;;;;;;22.30;11.27;;;7.40;99.90;;;;;;5032427;28;21001;-45
2022/01/19 02:25:41;;;;;;;23.13;11.80;;;7.40;99.90;;;;;;5015924;28;20929;-45
2022/01/19 02:36:51;;;;;;;19.50;11.40;;;7.10;99.90;;;;;;5033476;28;20462;-45
2022/01/19 02:42:06;;;;;;;18.67;10.70;;;7.30;99.90;;;;;;5033267;28;20460;-44
2022/01/19 02:46:33;;;;;;;20.60;9.90;;;7.30;99.90;;;;;;5018947;28;20516;-44
2022/01/19 02:50:09;;;;;;;21.37;10.90;;;7.30;99.90;;;;;;5033410;28;20448;-44
2022/01/19 02:52:36;;;;;;;19.33;11.10;;;7.30;99.90;;;;;;5031929;28;20425;-45
2022/01/19 02:55:04;;;;;;;17.33;10.03;;;7.30;99.90;;;;;;5033083;28;20813;-45
2022/01/19 02:57:34;;;;;;;17.90;10.60;;;7.30;99.90;;;;;;5031687;28;20458;-46
2022/01/19 03:10:59;;;;;;;18.97;10.37;;;7.40;99.90;;;;;;5031637;28;20415;-45
2022/01/19 03:13:26;;;;;;;19.30;9.43;;;7.30;99.90;;;;;;5033046;28;20410;-46
2022/01/19 03:15:53;;;;;;;14.07;10.40;;;7.30;99.90;;;;;;5031908;28;20859;-45
2022/01/19 03:18:20;;;;;;;13.07;9.17;;;7.30;99.90;;;;;;5031085;28;20823;-45
2022/01/19 03:20:46;;;;;;;19.40;10.57;;;7.30;99.90;;;;;;5031662;28;20435;-45
2022/01/19 03:23:20;;;;;;;19.57;10.63;;;7.30;99.90;;;;;;5052668;28;20455;-47
2022/01/19 03:25:47;;;;;;;14.93;10.00;;;7.40;99.90;;;;;;5034688;28;20800;-46
2022/01/19 03:28:15;;;;;;;18.03;9.83;;;7.40;99.90;;;;;;5034077;28;20464;-46
2022/01/19 03:30:41;;;;;;;12.87;9.20;;;7.40;99.90;;;;;;5034595;28;20449;-46
2022/01/19 03:33:09;;;;;;;21.23;12.17;;;7.40;99.90;;;;;;5034487;28;20858;-46
2022/01/19 03:35:36;;;;;;;22.03;11.37;;;7.40;99.90;;;;;;5034567;28;21014;-46
2022/01/19 03:38:02;;;;;;;18.97;10.57;;;7.40;99.90;;;;;;5033755;28;20878;-45
2022/01/19 03:40:30;;;;;;;18.80;11.60;;;7.30;99.90;;;;;;5052378;28;20411;-47
2022/01/19 03:42:57;;;;;;;22.00;12.23;;;7.40;99.90;;;;;;5034178;28;20946;-46
2022/01/19 03:45:50;;;;;;;21.33;12.10;;;7.40;99.90;;;;;;5034300;28;20973;-46
2022/01/19 03:48:31;;;;;;;21.17;12.60;;;7.40;99.90;;;;;;5051941;28;20436;-45
2022/01/19 03:50:58;;;;;;;17.07;11.73;;;7.40;99.90;;;;;;5034601;28;20454;-46
2022/01/19 03:53:25;;;;;;;18.73;11.20;;;7.40;99.90;;;;;;5052223;28;20434;-45
2022/01/19 03:55:53;;;;;;;16.30;10.80;;;7.40;99.90;;;;;;5034052;28;20836;-46
2022/01/19 03:58:19;;;;;;;23.90;12.30;;;7.40;99.90;;;;;;5033449;28;20454;-45
2022/01/19 04:00:46;;;;;;;20.20;12.63;;;7.40;99.90;;;;;;5033895;28;20872;-45
2022/01/19 04:03:19;;;;;;;25.20;13.00;;;7.40;99.90;;;;;;5051804;28;20513;-47
2022/01/19 04:05:56;;;;;;;24.00;12.87;;;7.30;99.90;;;;;;5034241;28;20470;-47
2022/01/19 04:08:23;;;;;;;21.50;12.50;;;7.30;99.90;;;;;;5051223;28;20437;-46
2022/01/19 04:10:50;;;;;;;26.27;11.60;;;7.30;99.90;;;;;;5034412;28;20581;-46
2022/01/19 04:13:30;;;;;;;21.60;12.60;;;7.30;99.90;;;;;;5034013;28;20574;-46
2022/01/19 04:15:56;;;;;;;26.50;12.70;;;7.30;99.90;;;;;;5051765;28;20451;-47
2022/01/19 04:18:23;;;;;;;17.70;11.63;;;7.30;99.90;;;;;;5033354;28;20765;-46
2022/01/19 04:20:52;;;;;;;18.07;11.57;;;7.30;99.90;;;;;;5034020;28;20449;-45
2022/01/19 04:23:21;;;;;;;16.63;11.73;;;7.30;99.90;;;;;;5033869;28;20485;-45
2022/01/19 04:25:48;;;;;;;23.47;12.77;;;7.30;99.90;;;;;;5033350;28;20437;-44
2022/01/19 04:28:15;;;;;;;19.83;11.53;;;7.30;99.90;;;;;;5050992;28;20434;-44
2022/01/19 04:30:47;;;;;;;22.67;12.80;;;7.30;99.90;;;;;;5033456;28;20436;-45
2022/01/19 04:33:17;;;;;;;21.57;12.03;;;7.30;99.90;;;;;;5033177;28;20526;-45
2022/01/19 04:35:48;;;;;;;18.97;11.63;;;7.20;99.90;;;;;;5032870;28;20558;-46
2022/01/19 04:39:05;;;;;;;17.07;11.67;;;7.20;99.90;;;;;;5033193;28;20435;-46
2022/01/19 04:44:27;;;;;;;19.93;11.80;;;7.10;99.90;;;;;;5033272;28;20423;-46
2022/01/19 05:03:35;;;;;;;24.40;15.50;;;7.10;99.90;;;;;;5051824;28;20516;-48
2022/01/19 05:06:10;;;;;;;20.43;12.50;;;7.10;99.90;;;;;;5034056;28;20981;-47
2022/01/19 05:08:51;;;;;;;20.87;15.70;;;7.10;99.90;;;;;;5034321;28;20823;-47
2022/01/19 05:14:03;;;;;;;21.03;13.70;;;7.00;99.90;;;;;;5034580;28;20422;-47
2022/01/19 05:16:30;;;;;;;21.80;11.97;;;7.10;99.90;;;;;;5034734;28;20465;-47
2022/01/19 05:18:59;;;;;;;18.80;12.90;;;7.10;99.90;;;;;;5052027;28;20437;-47
2022/01/19 05:21:26;;;;;;;26.43;14.07;;;7.10;99.90;;;;;;5034019;28;20451;-47
2022/01/19 05:24:11;;;;;;;24.23;15.03;;;7.10;99.90;;;;;;5035687;28;20444;-47
2022/01/19 05:26:40;;;;;;;24.17;16.10;;;7.10;99.90;;;;;;5017574;28;20473;-47
2022/01/19 05:29:09;;;;;;;27.13;14.97;;;7.00;99.90;;;;;;5017701;28;20465;-47
2022/01/19 05:31:36;;;;;;;27.57;15.20;;;7.00;99.90;;;;;;5017797;28;20446;-47
2022/01/19 05:34:05;;;;;;;24.17;15.60;;;7.10;99.90;;;;;;5017498;28;20825;-47
2022/01/19 05:36:39;;;;;;;22.57;14.43;;;7.10;99.90;;;;;;5017558;28;20531;-47
2022/01/19 05:39:25;;;;;;;20.43;14.27;;;7.00;99.90;;;;;;5016962;28;20486;-46
2022/01/19 05:42:02;;;;;;;27.73;15.20;;;7.10;99.90;;;;;;5017380;28;20479;-47
2022/01/19 05:44:30;;;;;;;23.90;14.00;;;7.10;99.90;;;;;;5023431;28;20924;-46
2022/01/19 05:46:56;;;;;;;24.40;15.17;;;7.10;99.90;;;;;;5036829;28;20503;-47
2022/01/19 05:49:25;;;;;;;20.00;14.43;;;7.10;99.90;;;;;;5036740;28;20881;-47
2022/01/19 05:51:51;;;;;;;19.93;14.80;;;6.90;99.90;;;;;;5036878;28;20485;-46
2022/01/19 05:54:20;;;;;;;22.00;14.50;;;7.00;99.90;;;;;;5037384;28;20449;-46
2022/01/19 05:56:46;;;;;;;19.10;14.60;;;7.00;99.90;;;;;;5036334;28;20489;-48
2022/01/19 05:59:25;;;;;;;22.07;14.00;;;7.00;99.90;;;;;;5036667;28;20439;-49
2022/01/19 06:01:53;;;;;;;23.77;15.30;;;7.00;99.90;;;;;;5036609;28;20822;-48
2022/01/19 06:04:20;;;;;;;24.30;14.53;;;6.90;99.90;;;;;;5036963;28;20920;-48
2022/01/19 06:07:05;;;;;;;21.20;14.37;;;6.90;99.90;;;;;;5036828;28;20427;-48
2022/01/19 06:09:50;;;;;;;20.80;14.23;;;6.90;99.90;;;;;;5036362;28;20980;-48
2022/01/19 06:12:19;;;;;;;21.57;15.00;;;6.90;99.90;;;;;;5036351;28;20520;-48
2022/01/19 06:14:46;;;;;;;23.90;15.83;;;6.90;99.90;;;;;;5036205;28;20457;-49
2022/01/19 06:17:15;;;;;;;25.37;16.60;;;6.90;99.90;;;;;;5036202;28;20898;-47
2022/01/19 06:19:42;;;;;;;26.73;16.90;;;6.90;99.90;;;;;;5035929;28;20591;-47
2022/01/19 06:22:14;;;;;;;29.83;17.23;;;7.00;99.90;;;;;;5032503;28;20465;-47
2022/01/19 06:24:41;;;;;;;25.03;15.40;;;6.80;99.90;;;;;;5034105;28;20549;-48
2022/01/19 06:27:08;;;;;;;27.10;16.40;;;7.00;99.90;;;;;;5016008;28;20512;-49
2022/01/19 06:29:34;;;;;;;29.13;17.10;;;7.00;99.90;;;;;;5016286;28;20507;-48
2022/01/19 06:32:01;;;;;;;24.70;16.30;;;7.00;99.90;;;;;;5033399;28;20438;-49
2022/01/19 06:34:28;;;;;;;24.33;16.27;;;7.00;99.90;;;;;;5016172;28;20446;-48
2022/01/19 06:37:22;;;;;;;22.27;15.47;;;7.00;99.90;;;;;;5008796;28;20458;-48
2022/01/19 06:39:56;;;;;;;32.73;17.63;;;7.00;99.90;;;;;;5015774;28;20428;-48
2022/01/19 06:42:23;;;;;;;27.43;17.00;;;7.00;99.90;;;;;;5015729;28;20473;-48
2022/01/19 06:44:49;;;;;;;31.83;17.63;;;7.00;99.90;;;;;;5024938;28;20450;-48
2022/01/19 06:47:16;;;;;;;26.70;16.93;;;6.90;99.90;;;;;;5035000;28;20454;-48
2022/01/19 06:49:43;;;;;;;30.53;18.80;;;6.90;99.90;;;;;;5035657;28;20822;-48
2022/01/19 06:52:12;;;;;;;29.33;16.43;;;6.90;99.90;;;;;;5036633;28;20453;-48
2022/01/19 06:54:40;;;;;;;25.20;16.37;;;6.90;99.90;;;;;;5053381;28;20525;-48
2022/01/19 06:57:07;;;;;;;19.70;14.80;;;6.90;99.90;;;;;;5035555;28;20464;-48
2022/01/19 06:59:37;;;;;;;26.90;16.67;;;6.90;99.90;;;;;;5035106;28;20455;-48
2022/01/19 07:02:11;;;;;;;27.27;17.30;;;6.90;99.90;;;;;;5035608;28;20488;-48
2022/01/19 07:04:49;;;;;;;25.20;16.10;;;6.90;99.90;;;;;;5035528;28;20477;-48
2022/01/19 07:07:24;;;;;;;32.33;17.70;;;6.80;99.90;;;;;;5035116;28;20450;-48
2022/01/19 07:10:05;;;;;;;25.80;16.10;;;6.60;99.90;;;;;;5035244;28;20454;-48
2022/01/19 07:12:32;;;;;;;30.67;16.80;;;6.80;99.90;;;;;;5035305;28;20453;-48
2022/01/19 07:15:00;;;;;;;22.23;14.93;;;6.80;99.90;;;;;;5035772;28;20468;-48
2022/01/19 07:17:27;;;;;;;31.07;16.27;;;6.80;99.90;;;;;;5035467;28;20955;-48
2022/01/19 07:19:53;;;;;;;32.10;16.50;;;6.60;99.90;;;;;;5035396;28;20469;-47
2022/01/19 07:22:20;;;;;;;27.50;15.40;;;6.60;99.90;;;;;;5031857;28;20462;-47
2022/01/19 07:24:52;;;;;;;22.70;14.70;;;6.70;99.90;;;;;;5015330;28;20501;-47
2022/01/19 07:27:20;;;;;;;25.23;14.50;;;6.70;99.90;;;;;;5015274;28;20457;-49
2022/01/19 07:29:47;;;;;;;19.67;13.17;;;6.70;99.90;;;;;;5014906;28;20757;-48
2022/01/19 07:32:14;;;;;;;21.10;13.60;;;6.70;99.90;;;;;;5016029;28;20458;-48
2022/01/19 07:34:41;;;;;;;20.30;12.83;;;6.70;99.90;;;;;;5014924;28;20446;-47
2022/01/19 07:37:11;;;;;;;21.90;12.93;;;6.70;99.90;;;;;;5014852;28;20990;-48
2022/01/19 07:39:38;;;;;;;20.60;12.73;;;6.70;99.90;;;;;;5015058;28;20875;-47
2022/01/19 07:42:06;;;;;;;19.70;12.40;;;6.70;99.90;;;;;;5014309;28;20424;-48
2022/01/19 07:44:54;;;;;;;24.30;12.87;;;6.70;99.90;;;;;;5034474;28;20438;-48
2022/01/19 07:47:44;;;;;;;18.33;10.70;;;6.70;99.90;;;;;;5034416;28;20452;-48
2022/01/19 07:50:17;;;;;;;21.77;12.53;;;6.70;99.90;;;;;;5034722;28;20448;-48
2022/01/19 07:52:53;;;;;;;20.30;11.23;;;6.70;99.90;;;;;;5034616;28;20448;-48
2022/01/19 07:55:23;;;;;;;21.60;11.20;;;6.80;99.90;;;;;;5034181;28;20476;-47
2022/01/19 07:58:22;;;;;;;25.47;12.13;;;6.80;99.90;;;;;;5033894;28;20574;-47
2022/01/19 08:01:08;;;;;;;20.10;11.40;;;6.80;99.90;;;;;;5033989;28;20457;-49
2022/01/19 08:03:45;;;;;;;22.50;11.67;;;6.80;99.90;;;;;;5034273;28;20503;-49
2022/01/19 08:06:20;;;;;;;15.43;9.93;;;6.90;99.90;;;;;;5034619;28;20446;-48
2022/01/19 08:08:48;;;;;;;21.03;11.97;;;6.70;99.90;;;;;;5033943;28;20432;-49
2022/01/19 08:11:15;;;;;;;17.53;10.20;;;6.90;99.90;;;;;;5034154;28;20523;-49
2022/01/19 08:13:45;;;;;;;24.97;13.23;;;6.90;99.90;;;;;;5034741;28;21031;-48
2022/01/19 08:16:13;;;;;;;22.87;10.57;;;6.80;99.90;;;;;;5034130;28;20542;-47
2022/01/19 08:18:39;;;;;;;31.70;12.97;;;6.80;99.90;;;;;;5051944;28;20732;-49
2022/01/19 08:21:06;;;;;;;17.67;11.40;;;6.60;99.90;;;;;;5034517;28;20456;-49
2022/01/19 08:23:43;;;;;;;18.90;11.97;;;6.80;99.90;;;;;;5033633;28;20496;-46
2022/01/19 08:26:12;;;;;;;21.50;10.73;;;6.80;99.90;;;;;;5034090;28;20447;-47
2022/01/19 08:28:40;;;;;;;15.80;9.40;;;6.80;99.90;;;;;;5033848;28;21016;-48
2022/01/19 08:31:07;;;;;;;15.47;8.73;;;6.80;99.90;;;;;;5033916;28;20645;-48
2022/01/19 08:34:13;;;;;;;15.47;8.97;;;6.80;99.90;;;;;;5051663;28;20450;-48
2022/01/19 08:37:06;;;;;;;17.40;8.83;;;6.80;99.90;;;;;;5052139;28;20762;-48
2022/01/19 08:39:39;;;;;;;18.30;8.60;;;6.70;99.90;;;;;;5033773;28;20518;-47
2022/01/19 08:42:07;;;;;;;14.53;9.13;;;6.70;99.90;;;;;;5034451;28;20542;-47
2022/01/19 08:44:35;;;;;;;15.27;8.77;;;6.70;99.90;;;;;;5033992;28;20480;-47
2022/01/19 08:47:15;;;;;;;15.97;9.73;;;6.70;99.90;;;;;;5034460;28;20452;-46
2022/01/19 08:50:04;;;;;;;12.73;8.40;;;6.70;99.90;;;;;;5051740;28;20448;-49
2022/01/19 08:52:39;;;;;;;19.30;9.53;;;6.70;99.90;;;;;;5051837;28;20773;-49
2022/01/19 08:55:16;;;;;;;13.60;8.17;;;6.60;99.90;;;;;;5037263;28;20503;-49
2022/01/19 08:57:44;;;;;;;13.40;9.20;;;6.70;99.90;;;;;;5055191;28;20415;-49
2022/01/19 09:00:13;;;;;;;16.37;8.90;;;6.60;99.90;;;;;;5037706;28;20513;-49
2022/01/19 09:02:40;;;;;;;12.10;8.30;;;6.60;99.90;;;;;;5055775;28;20443;-49
2022/01/19 09:05:09;;;;;;;15.93;10.27;;;6.60;99.90;;;;;;5056006;28;20485;-48
2022/01/19 09:07:36;;;;;;;13.53;9.70;;;6.70;99.90;;;;;;5055691;28;20437;-47
2022/01/19 09:10:04;;;;;;;15.77;9.07;;;6.70;99.90;;;;;;5055185;28;20556;-47
2022/01/19 09:12:31;;;;;;;14.93;10.00;;;6.70;99.90;;;;;;5055810;28;20432;-46
2022/01/19 09:14:58;;;;;;;13.00;9.50;;;6.70;99.90;;;;;;5055478;28;20458;-47
2022/01/19 09:17:25;;;;;;;16.43;8.73;;;6.70;99.90;;;;;;5055409;28;20425;-48
2022/01/19 09:19:52;;;;;;;13.50;9.43;;;6.70;99.90;;;;;;5055219;28;20446;-47
2022/01/19 09:22:20;;;;;;;14.20;9.47;;;6.70;99.90;;;;;;5055953;28;20419;-48
2022/01/19 09:24:46;;;;;;;22.37;11.37;;;6.70;99.90;;;;;;5055167;28;20472;-50
2022/01/19 09:27:15;;;;;;;15.07;10.20;;;6.70;99.90;;;;;;5055934;28;20439;-47
2022/01/19 09:29:45;;;;;;;14.30;11.03;;;6.70;99.90;;;;;;5054842;28;20890;-47
2022/01/19 09:32:12;;;;;;;14.57;10.60;;;6.50;99.90;;;;;;5055266;28;20443;-49
2022/01/19 09:34:40;;;;;;;15.77;10.07;;;6.70;99.90;;;;;;5036813;28;20785;-48
2022/01/19 09:37:07;;;;;;;23.70;13.30;;;6.70;99.90;;;;;;5055190;28;20443;-47
2022/01/19 09:39:35;;;;;;;18.07;11.20;;;6.70;99.90;;;;;;5054793;28;20440;-48
2022/01/19 09:42:02;;;;;;;16.80;11.10;;;6.70;99.90;;;;;;5055957;28;20432;-48
2022/01/19 09:44:29;;;;;;;19.00;11.60;;;6.70;99.90;;;;;;5054568;28;20456;-48
2022/01/19 09:46:56;;;;;;;18.47;10.23;;;6.70;99.90;;;;;;5055079;28;20434;-48
2022/01/19 09:49:24;;;;;;;17.20;10.70;;;6.70;99.90;;;;;;5054626;28;20445;-48
2022/01/19 09:51:54;;;;;;;20.10;11.30;;;6.80;99.90;;;;;;5054874;28;20908;-48
2022/01/19 09:54:22;;;;;;;23.80;11.03;;;6.80;99.90;;;;;;5054982;28;20498;-48
2022/01/19 09:56:51;;;;;;;13.30;9.90;;;6.80;99.90;;;;;;5054850;28;20547;-47
2022/01/19 09:59:20;;;;;;;12.47;9.70;;;6.80;99.90;;;;;;5054524;28;20453;-47
2022/01/19 10:01:52;;;;;;;17.87;10.97;;;6.90;99.90;;;;;;5055101;28;20444;-47
2022/01/19 10:04:19;;;;;;;14.90;10.83;;;6.90;99.90;;;;;;5054726;28;20476;-47
2022/01/19 10:06:46;;;;;;;17.67;12.23;;;6.90;99.90;;;;;;5053848;28;20451;-48
2022/01/19 10:09:13;;;;;;;17.13;10.63;;;6.90;99.90;;;;;;5054514;28;20422;-48
2022/01/19 10:17:08;;;;;;;16.03;11.20;;;7.00;99.90;;;;;;5053958;28;20940;-48
2022/01/19 10:19:37;;;;;;;16.90;11.43;;;7.00;99.90;;;;;;5054548;28;20435;-48
2022/01/19 10:22:11;;;;;;;18.80;12.63;;;7.00;99.90;;;;;;5054267;28;20939;-49
2022/01/19 10:24:47;;;;;;;16.07;11.53;;;7.10;99.90;;;;;;5054388;28;20449;-48
2022/01/19 10:27:29;;;;;;;16.50;11.13;;;7.00;99.90;;;;;;5054157;28;20610;-48
2022/01/19 10:30:19;;;;;;;16.30;10.83;;;7.10;99.90;;;;;;5054319;28;20444;-48
2022/01/19 10:32:49;;;;;;;16.80;11.50;;;7.10;99.90;;;;;;5053931;28;20449;-48
2022/01/19 10:35:18;;;;;;;14.23;11.13;;;7.10;99.90;;;;;;5053553;28;20434;-48
2022/01/19 10:37:46;;;;;;;18.30;12.60;;;7.10;99.90;;;;;;5053329;28;20986;-47
2022/01/19 10:40:18;;;;;;;15.30;11.53;;;7.10;99.90;;;;;;5054151;28;20431;-48
2022/01/19 10:42:45;;;;;;;16.20;11.30;;;7.10;99.90;;;;;;5053799;28;20438;-48
2022/01/19 10:45:14;;;;;;;20.53;12.20;;;7.10;99.90;;;;;;5053629;28;20468;-48
2022/01/19 10:47:48;;;;;;;19.33;13.30;;;7.10;99.90;;;;;;5053382;28;20528;-49
2022/01/19 10:50:19;;;;;;;17.47;14.17;;;7.10;99.90;;;;;;5053966;28;20594;-49
2022/01/19 10:52:47;;;;;;;18.23;15.87;;;7.20;99.90;;;;;;5053762;28;20412;-49
2022/01/19 10:55:25;;;;;;;18.50;16.43;;;7.10;99.90;;;;;;5053733;28;20494;-49
2022/01/19 10:57:52;;;;;;;16.13;13.00;;;7.10;99.90;;;;;;5052193;28;20437;-47
2022/01/19 11:00:24;;;;;;;20.07;14.60;;;7.10;99.90;;;;;;5052543;28;20443;-48
2022/01/19 11:02:53;;;;;;;22.47;14.60;;;7.10;99.90;;;;;;5034500;28;20816;-47
2022/01/19 11:05:42;;;;;;;16.67;14.23;;;7.10;99.90;;;;;;5052486;28;20458;-49
2022/01/19 11:08:09;;;;;;;17.77;15.33;;;7.10;99.90;;;;;;5052006;28;20404;-48
2022/01/19 11:10:36;;;;;;;15.87;14.20;;;7.00;99.90;;;;;;5051991;28;20787;-48
2022/01/19 11:13:05;;;;;;;20.80;16.50;;;7.10;99.90;;;;;;5052982;28;20412;-49
2022/01/19 11:15:33;;;;;;;22.83;15.50;;;7.10;99.90;;;;;;5052407;28;20428;-47
2022/01/19 11:18:00;;;;;;;22.37;15.90;;;7.20;99.90;;;;;;5050550;28;20408;-46
2022/01/19 11:20:27;;;;;;;21.50;16.10;;;7.20;99.90;;;;;;5052210;28;20477;-49
2022/01/19 11:23:07;;;;;;;20.43;16.40;;;7.20;99.90;;;;;;5052199;28;20514;-47
2022/01/19 11:25:46;;;;;;;16.37;14.67;;;7.20;99.90;;;;;;5052408;28;20457;-46
2022/01/19 11:28:25;;;;;;;16.67;14.87;;;7.20;99.90;;;;;;5051687;28;20870;-48
2022/01/19 11:30:54;;;;;;;20.80;15.20;;;7.20;99.90;;;;;;5052168;28;20884;-47
2022/01/19 11:33:25;;;;;;;15.23;13.47;;;7.20;99.90;;;;;;5051730;28;20503;-47
2022/01/19 11:35:54;;;;;;;17.37;15.50;;;7.10;99.90;;;;;;5051812;28;20853;-48
2022/01/19 11:38:36;;;;;;;16.70;14.43;;;7.10;99.90;;;;;;5051401;28;20821;-47
2022/01/19 11:41:25;;;;;;;18.30;13.47;;;7.10;99.90;;;;;;5051886;28;20437;-47
2022/01/19 11:43:53;;;;;;;17.07;15.27;;;7.10;99.90;;;;;;5051552;28;20423;-47
2022/01/19 11:46:31;;;;;;;20.03;15.20;;;7.00;99.90;;;;;;5051287;28;20467;-48
2022/01/19 11:49:00;;;;;;;21.53;15.53;;;7.00;99.90;;;;;;5051074;28;20510;-48
2022/01/19 11:51:30;;;;;;;19.87;16.53;;;7.00;99.90;;;;;;5051589;28;20414;-49
2022/01/19 11:54:07;;;;;;;19.70;16.13;;;6.90;99.90;;;;;;5051294;28;20436;-47
2022/01/19 11:56:34;;;;;;;19.33;17.10;;;6.90;99.90;;;;;;5051194;28;20568;-47
2022/01/19 11:59:09;;;;;;;19.10;16.60;;;6.90;99.90;;;;;;5050729;28;20970;-49
2022/01/19 12:01:37;;;;;;;21.93;17.27;;;6.90;99.90;;;;;;5051716;28;20536;-48
2022/01/19 12:04:15;;;;;;;24.53;16.93;;;6.90;99.90;;;;;;5051239;28;20573;-47
2022/01/19 12:06:43;;;;;;;25.97;18.10;;;6.90;99.90;;;;;;5051105;28;20468;-48
2022/01/19 12:09:12;;;;;;;18.80;15.77;;;6.80;99.90;;;;;;5050681;28;20452;-48
2022/01/19 12:11:43;;;;;;;19.73;15.63;;;6.80;99.90;;;;;;5050917;28;20418;-48
2022/01/19 12:14:14;;;;;;;15.93;13.40;;;6.70;99.90;;;;;;5051414;28;20438;-49
2022/01/19 12:16:54;;;;;;;19.87;14.97;;;6.70;99.90;;;;;;5051249;28;20453;-48
2022/01/19 12:19:26;;;;;;;20.67;14.73;;;6.70;99.90;;;;;;5050276;28;20408;-48
2022/01/19 12:22:05;;;;;;;19.17;14.63;;;6.50;99.90;;;;;;5051163;28;20545;-47
2022/01/19 12:24:36;;;;;;;17.60;14.80;;;6.60;99.90;;;;;;5050761;28;21036;-48
2022/01/19 12:27:08;;;;;;;19.40;15.00;;;6.50;99.90;;;;;;5051157;28;20524;-49
2022/01/19 12:29:46;;;;;;;22.50;15.60;;;6.50;99.90;;;;;;5050548;28;20440;-48
2022/01/19 12:32:52;;;;;;;18.43;15.43;;;6.40;99.90;;;;;;5049533;28;20463;-48
2022/01/19 12:35:34;;;;;;;17.17;14.80;;;6.40;99.90;;;;;;5037197;28;20989;-49
2022/01/19 12:38:04;;;;;;;17.43;15.20;;;6.40;99.90;;;;;;5050804;28;20415;-47
2022/01/19 12:40:43;;;;;;;22.17;16.30;;;6.40;99.90;;;;;;5050945;28;20451;-47
2022/01/19 12:43:13;;;;;;;19.87;16.33;;;6.40;99.90;;;;;;5050657;28;20440;-49
2022/01/19 12:45:49;;;;;;;17.93;15.97;;;6.40;99.90;;;;;;5050307;28;20516;-48
2022/01/19 12:48:33;;;;;;;17.83;15.30;;;6.40;99.90;;;;;;5051277;28;20422;-48
2022/01/19 12:51:01;;;;;;;22.40;15.67;;;6.30;99.90;;;;;;5051406;28;20451;-48
2022/01/19 12:53:28;;;;;;;17.87;15.97;;;6.30;99.90;;;;;;5050808;28;20409;-49
2022/01/19 12:55:58;;;;;;;19.07;14.87;;;6.30;99.90;;;;;;5050623;28;20487;-48
2022/01/19 12:58:29;;;;;;;17.90;15.83;;;6.30;99.90;;;;;;5050169;28;20440;-48
2022/01/19 13:00:58;;;;;;;16.53;14.83;;;6.30;99.90;;;;;;5050084;28;20414;-48
2022/01/19 13:03:28;;;;;;;19.63;15.90;;;6.20;99.90;;;;;;5051723;28;20762;-48
2022/01/19 13:06:01;;;;;;;16.37;14.43;;;6.20;99.90;;;;;;5051127;28;20525;-48
2022/01/19 13:08:32;;;;;;;21.13;16.43;;;6.20;99.90;;;;;;5050574;28;20440;-49
2022/01/19 13:11:10;;;;;;;26.00;16.97;;;6.20;99.90;;;;;;5051402;28;20444;-49
2022/01/19 13:13:49;;;;;;;19.70;16.33;;;6.20;99.90;;;;;;5050783;28;20468;-49
2022/01/19 13:16:26;;;;;;;19.77;17.30;;;6.20;99.90;;;;;;5049970;28;20468;-48
2022/01/19 13:18:53;;;;;;;21.43;17.70;;;6.20;99.90;;;;;;5012459;28;20465;-48
2022/01/19 13:21:22;;;;;;;19.30;17.30;;;6.20;99.90;;;;;;5035645;28;20425;-48
2022/01/19 13:24:05;;;;;;;19.13;16.83;;;6.20;99.90;;;;;;5050306;28;20893;-47
2022/01/19 13:26:44;;;;;;;19.83;17.87;;;6.30;99.90;;;;;;5050205;28;21019;-48
2022/01/19 13:29:23;;;;;;;21.27;17.97;;;6.30;99.90;;;;;;5050007;28;20410;-47
2022/01/19 13:32:06;;;;;;;22.53;20.30;;;6.30;99.90;;;;;;5050806;28;20411;-48
2022/01/19 13:34:35;;;;;;;22.00;18.77;;;6.40;99.90;;;;;;5050515;28;20925;-48
2022/01/19 13:37:04;;;;;;;22.73;18.93;;;6.30;99.90;;;;;;5050228;28;20821;-47
2022/01/19 13:39:33;;;;;;;22.47;20.07;;;6.30;99.90;;;;;;5049611;28;20776;-48
2022/01/19 13:42:01;;;;;;;20.83;18.63;;;6.30;99.90;;;;;;5052905;28;20491;-49
2022/01/19 13:44:33;;;;;;;22.77;18.83;;;6.30;99.90;;;;;;5053656;28;20440;-47
2022/01/19 13:47:11;;;;;;;21.53;18.93;;;6.20;99.90;;;;;;5054385;28;20428;-47
2022/01/19 13:49:40;;;;;;;19.93;17.90;;;6.20;99.90;;;;;;5035370;28;20427;-48
2022/01/19 13:52:07;;;;;;;20.43;16.17;;;6.20;99.90;;;;;;5053891;28;20406;-47
2022/01/19 13:54:41;;;;;;;18.67;16.67;;;6.10;99.90;;;;;;5054186;28;20805;-49
2022/01/19 13:57:08;;;;;;;15.97;14.50;;;6.20;99.90;;;;;;5054113;28;20532;-47
2022/01/19 13:59:35;;;;;;;15.37;13.77;;;6.20;99.90;;;;;;5053147;28;20431;-47
2022/01/19 14:02:13;;;;;;;15.90;14.30;;;6.10;99.90;;;;;;5053734;28;20437;-48
2022/01/19 14:04:52;;;;;;;15.03;13.40;;;6.10;99.90;;;;;;5053911;28;20812;-49
2022/01/19 14:07:18;;;;;;;14.70;13.20;;;6.10;99.90;;;;;;5053633;28;20475;-47